createdAt,value
2022-10-23T00:01:52.722Z,8.55
2022-10-23T00:04:22.354Z,6.95
2022-10-23T00:06:51.439Z,8.25
2022-10-23T00:09:21.587Z,7.35
2022-10-23T00:11:52.017Z,6.75
2022-10-23T00:14:23.133Z,7.85
2022-10-23T00:16:51.993Z,8.75
2022-10-23T00:19:20.541Z,7.32
2022-10-23T00:21:48.751Z,7.80
2022-10-23T00:24:17.237Z,5.85
2022-10-23T00:26:45.771Z,6.78
2022-10-23T00:29:15.698Z,6.25
2022-10-23T00:31:43.794Z,7.50
2022-10-23T00:34:11.916Z,7.25
2022-10-23T00:36:40.804Z,7.47
2022-10-23T00:39:08.935Z,7.10
2022-10-23T00:41:37.372Z,7.63
2022-10-23T00:44:09.384Z,6.45
2022-10-23T00:46:40.688Z,7.47
2022-10-23T00:49:09.685Z,6.72
2022-10-23T00:51:41.706Z,6.72
2022-10-23T00:54:29.426Z,7.10
2022-10-23T00:57:01.615Z,6.82
2022-10-23T00:59:30.782Z,7.20
2022-10-23T01:02:01.685Z,7.03
2022-10-23T01:04:31.387Z,6.75
2022-10-23T01:07:07.212Z,6.38
2022-10-23T01:09:41.003Z,7.15
2022-10-23T01:12:14.657Z,6.95
2022-10-23T01:14:56.107Z,6.20
2022-10-23T01:17:33.494Z,7.07
2022-10-23T01:20:31.098Z,9.07
2022-10-23T01:23:14.571Z,7.53
2022-10-23T01:25:59.814Z,6.97
2022-10-23T01:28:35.081Z,6.95
2022-10-23T01:31:10.288Z,6.28
2022-10-23T01:33:42.843Z,6.47
2022-10-23T01:36:15.566Z,5.93
2022-10-23T01:38:49.088Z,7.05
2022-10-23T01:41:22.246Z,7.40
2022-10-23T01:43:57.136Z,7.05
2022-10-23T01:46:27.815Z,6.68
2022-10-23T01:48:58.727Z,6.75
2022-10-23T01:51:30.396Z,7.35
2022-10-23T01:54:01.265Z,6.85
2022-10-23T01:56:34.367Z,6.38
2022-10-23T01:59:07.142Z,9.30
2022-10-23T02:01:38.515Z,7.47
2022-10-23T02:04:16.076Z,6.53
2022-10-23T02:06:44.332Z,6.80
2022-10-23T02:09:12.463Z,7.13
2022-10-23T02:11:49.979Z,7.30
2022-10-23T02:14:25.406Z,6.40
2022-10-23T02:16:55.988Z,6.77
2022-10-23T02:19:30.615Z,6.40
2022-10-23T02:22:07.719Z,6.15
2022-10-23T02:24:43.205Z,6.30
2022-10-23T02:27:15.057Z,5.63
2022-10-23T02:29:48.113Z,6.20
2022-10-23T02:32:16.813Z,6.25
2022-10-23T02:34:45.143Z,6.15
2022-10-23T02:37:13.742Z,6.00
2022-10-23T02:39:42.887Z,6.20
2022-10-23T02:42:17.371Z,5.90
2022-10-23T02:44:57.443Z,6.35
2022-10-23T02:47:36.455Z,6.28
2022-10-23T02:50:11.883Z,6.13
2022-10-23T02:52:46.598Z,8.23
2022-10-23T02:55:28.213Z,6.07
2022-10-23T02:58:01.531Z,6.88
2022-10-23T03:00:34.099Z,7.18
2022-10-23T03:03:07.233Z,5.90
2022-10-23T03:05:39.714Z,5.70
2022-10-23T03:08:10.585Z,6.95
2022-10-23T03:10:39.031Z,6.03
2022-10-23T03:13:07.111Z,6.20
2022-10-23T03:15:36.859Z,6.50
2022-10-23T03:18:05.686Z,5.97
2022-10-23T03:20:33.872Z,6.60
2022-10-23T03:23:04.743Z,6.05
2022-10-23T03:25:33.240Z,5.85
2022-10-23T03:28:02.008Z,6.38
2022-10-23T03:30:30.322Z,5.45
2022-10-23T03:33:00.182Z,6.18
2022-10-23T03:35:28.802Z,6.07
2022-10-23T03:37:57.767Z,6.55
2022-10-23T03:40:26.347Z,7.72
2022-10-23T03:42:54.565Z,5.32
2022-10-23T03:45:22.735Z,6.35
2022-10-23T03:47:51.820Z,7.07
2022-10-23T03:50:21.792Z,12.50
2022-10-23T03:52:50.302Z,5.95
2022-10-23T03:55:19.389Z,7.13
2022-10-23T03:57:47.836Z,5.72
2022-10-23T04:00:16.571Z,6.47
2022-10-23T04:02:45.397Z,6.75
2022-10-23T04:05:14.044Z,6.03
2022-10-23T04:07:43.826Z,6.18
2022-10-23T04:10:12.530Z,5.53
2022-10-23T04:12:41.323Z,5.20
2022-10-23T04:15:10.712Z,5.43
2022-10-23T04:17:39.325Z,6.65
2022-10-23T04:20:07.805Z,6.35
2022-10-23T04:22:36.293Z,5.53
2022-10-23T04:25:06.985Z,6.20
2022-10-23T04:27:35.463Z,5.18
2022-10-23T04:30:04.226Z,5.65
2022-10-23T04:32:32.404Z,5.82
2022-10-23T04:35:00.879Z,5.70
2022-10-23T04:37:29.225Z,5.70
2022-10-23T04:39:57.819Z,5.30
2022-10-23T04:42:30.120Z,6.68
2022-10-23T04:44:58.619Z,6.10
2022-10-23T04:47:27.127Z,6.15
2022-10-23T04:49:56.390Z,6.43
2022-10-23T04:52:24.924Z,6.97
2022-10-23T04:54:53.426Z,5.15
2022-10-23T04:57:21.952Z,5.68
2022-10-23T04:59:52.249Z,5.88
2022-10-23T05:02:20.376Z,4.95
2022-10-23T05:04:48.928Z,5.45
2022-10-23T05:07:17.142Z,5.60
2022-10-23T05:09:45.935Z,5.00
2022-10-23T05:12:14.650Z,5.55
2022-10-23T05:14:42.922Z,5.75
2022-10-23T05:17:16.219Z,5.47
2022-10-23T05:19:49.264Z,7.47
2022-10-23T05:22:18.624Z,5.22
2022-10-23T05:24:50.735Z,5.13
2022-10-23T05:27:19.285Z,5.38
2022-10-23T05:29:47.554Z,4.88
2022-10-23T05:32:18.616Z,5.55
2022-10-23T05:34:50.368Z,6.15
2022-10-23T05:37:19.095Z,7.50
2022-10-23T05:39:47.792Z,5.32
2022-10-23T05:42:16.363Z,5.82
2022-10-23T05:44:45.105Z,6.28
2022-10-23T05:47:13.931Z,5.80
2022-10-23T05:49:44.216Z,7.57
2022-10-23T05:52:12.908Z,9.40
2022-10-23T05:54:41.492Z,7.68
2022-10-23T05:57:09.885Z,7.68
2022-10-23T05:59:38.018Z,8.07
2022-10-23T06:02:06.403Z,8.90
2022-10-23T06:04:35.689Z,4.93
2022-10-23T06:07:05.938Z,6.07
2022-10-23T06:09:34.477Z,4.55
2022-10-23T06:12:03.317Z,10.02
2022-10-23T06:14:31.836Z,6.32
2022-10-23T06:17:00.150Z,8.93
2022-10-23T06:19:28.791Z,7.25
2022-10-23T06:21:57.360Z,8.10
2022-10-23T06:24:27.696Z,9.48
2022-10-23T06:26:55.973Z,9.77
2022-10-23T06:29:24.693Z,7.53
2022-10-23T06:31:53.184Z,8.57
2022-10-23T06:34:21.651Z,9.10
2022-10-23T06:36:49.873Z,10.15
2022-10-23T06:39:18.435Z,9.60
2022-10-23T06:41:50.089Z,9.00
2022-10-23T06:44:18.590Z,7.97
2022-10-23T06:46:50.225Z,8.88
2022-10-23T06:49:19.257Z,8.13
2022-10-23T06:51:47.923Z,7.88
2022-10-23T06:54:16.575Z,8.43
2022-10-23T06:56:44.833Z,8.35
2022-10-23T06:59:14.709Z,8.52
2022-10-23T07:01:43.410Z,8.98
2022-10-23T07:04:13.727Z,8.50
2022-10-23T07:06:42.764Z,8.70
2022-10-23T07:09:12.953Z,8.63
2022-10-23T07:11:44.366Z,9.55
2022-10-23T07:14:12.565Z,9.85
2022-10-23T07:16:42.317Z,9.52
2022-10-23T07:19:10.891Z,10.40
2022-10-23T07:21:39.531Z,9.27
2022-10-23T07:24:08.121Z,9.77
2022-10-23T07:26:36.681Z,9.75
2022-10-23T07:29:05.433Z,11.07
2022-10-23T07:31:34.095Z,9.73
2022-10-23T07:34:04.151Z,9.57
2022-10-23T07:36:32.459Z,11.77
2022-10-23T07:39:01.072Z,9.60
2022-10-23T07:41:29.757Z,9.00
2022-10-23T07:43:58.251Z,8.88
2022-10-23T07:46:26.662Z,11.10
2022-10-23T07:48:54.745Z,18.95
2022-10-23T07:51:24.679Z,7.85
2022-10-23T07:53:53.266Z,12.07
2022-10-23T07:56:24.867Z,22.40
2022-10-23T07:58:54.392Z,9.45
2022-10-23T08:01:34.233Z,11.40
2022-10-23T08:04:02.865Z,12.13
2022-10-23T08:06:33.331Z,16.05
2022-10-23T08:09:05.373Z,12.23
2022-10-23T08:11:36.284Z,9.90
2022-10-23T08:14:06.573Z,11.10
2022-10-23T08:16:36.982Z,9.20
2022-10-23T08:19:07.073Z,11.05
2022-10-23T08:21:37.162Z,14.77
2022-10-23T08:24:06.660Z,12.48
2022-10-23T08:26:35.270Z,13.50
2022-10-23T08:29:03.815Z,9.65
2022-10-23T08:31:32.066Z,10.38
2022-10-23T08:34:00.662Z,10.20
2022-10-23T08:36:30.339Z,11.45
2022-10-23T08:39:00.672Z,14.07
2022-10-23T08:41:31.803Z,10.10
2022-10-23T08:44:09.818Z,13.02
2022-10-23T08:46:44.071Z,12.35
2022-10-23T08:49:26.044Z,10.27
2022-10-23T08:51:57.709Z,11.98
2022-10-23T08:54:35.239Z,10.32
2022-10-23T08:57:10.907Z,9.95
2022-10-23T08:59:45.748Z,10.15
2022-10-23T09:02:19.373Z,11.20
2022-10-23T09:04:50.087Z,8.73
2022-10-23T09:07:32.425Z,9.15
2022-10-23T09:10:19.669Z,12.05
2022-10-23T09:12:48.337Z,8.48
2022-10-23T09:15:24.131Z,10.20
2022-10-23T09:17:59.088Z,10.32
2022-10-23T09:20:30.151Z,14.88
2022-10-23T09:23:01.683Z,9.57
2022-10-23T09:25:35.161Z,9.85
2022-10-23T09:28:05.575Z,8.82
2022-10-23T09:30:36.980Z,7.82
2022-10-23T09:33:16.198Z,8.07
2022-10-23T09:35:56.192Z,9.25
2022-10-23T09:38:29.277Z,9.38
2022-10-23T09:41:01.631Z,10.18
2022-10-23T09:43:30.351Z,8.95
2022-10-23T09:46:00.471Z,10.95
2022-10-23T09:48:29.121Z,9.25
2022-10-23T09:50:59.529Z,7.85
2022-10-23T09:53:36.097Z,12.48
2022-10-23T09:56:11.811Z,8.80
2022-10-23T09:58:53.344Z,8.20
2022-10-23T10:01:25.700Z,10.65
2022-10-23T10:03:54.942Z,13.93
2022-10-23T10:06:25.286Z,19.15
2022-10-23T10:08:56.135Z,18.67
2022-10-23T10:11:31.940Z,20.52
2022-10-23T10:14:12.812Z,19.48
2022-10-23T10:16:48.308Z,20.17
2022-10-23T10:19:29.037Z,25.77
2022-10-23T10:22:08.894Z,20.45
2022-10-23T10:24:43.525Z,20.38
2022-10-23T10:27:25.784Z,17.90
2022-10-23T10:30:04.237Z,15.02
2022-10-23T10:32:42.034Z,17.83
2022-10-23T10:35:41.386Z,17.83
2022-10-23T10:38:39.249Z,14.63
2022-10-23T10:41:35.545Z,16.70
2022-10-23T10:44:17.394Z,15.68
2022-10-23T10:46:53.405Z,15.57
2022-10-23T10:49:30.357Z,18.02
2022-10-23T10:52:10.134Z,13.20
2022-10-23T10:54:49.846Z,14.27
2022-10-23T10:57:28.930Z,16.60
2022-10-23T11:00:03.088Z,13.77
2022-10-23T11:02:39.426Z,14.55
2022-10-23T11:07:53.981Z,12.07
2022-10-23T11:10:23.222Z,14.27
2022-10-23T11:12:52.919Z,13.65
2022-10-23T11:15:29.290Z,10.05
2022-10-23T11:18:00.774Z,12.15
2022-10-23T11:20:46.618Z,15.57
2022-10-23T11:23:36.263Z,11.35
2022-10-23T11:26:19.617Z,10.80
2022-10-23T11:29:24.783Z,13.88
2022-10-23T11:32:11.760Z,13.02
2022-10-23T11:34:59.587Z,13.32
2022-10-23T11:37:27.868Z,13.23
2022-10-23T11:40:14.356Z,11.48
2022-10-23T11:42:49.242Z,11.93
2022-10-23T11:45:34.914Z,11.27
2022-10-23T11:48:06.530Z,9.85
2022-10-23T11:50:51.445Z,10.70
2022-10-23T11:53:29.393Z,10.77
2022-10-23T11:56:04.181Z,10.88
2022-10-23T11:58:44.550Z,12.65
2022-10-23T12:01:31.391Z,12.02
2022-10-23T12:04:05.315Z,19.58
2022-10-23T12:06:40.366Z,8.80
2022-10-23T12:09:23.174Z,10.32
2022-10-23T12:12:04.201Z,10.73
2022-10-23T12:14:34.849Z,9.30
2022-10-23T12:17:04.344Z,9.80
2022-10-23T12:19:49.531Z,9.80
2022-10-23T12:22:20.163Z,9.10
2022-10-23T12:25:04.480Z,8.98
2022-10-23T12:27:41.407Z,9.07
2022-10-23T12:30:21.231Z,9.52
2022-10-23T12:33:20.638Z,7.20
2022-10-23T12:36:25.351Z,7.50
2022-10-23T12:38:56.037Z,7.05
2022-10-23T12:41:30.870Z,9.70
2022-10-23T12:44:02.580Z,12.05
2022-10-23T12:46:35.421Z,8.50
2022-10-23T12:49:14.184Z,8.68
2022-10-23T12:51:44.100Z,8.88
2022-10-23T12:54:17.574Z,9.10
2022-10-23T12:56:46.279Z,8.70
2022-10-23T12:59:18.249Z,8.10
2022-10-23T13:01:52.396Z,8.13
2022-10-23T13:04:29.340Z,10.13
2022-10-23T13:07:00.996Z,8.20
2022-10-23T13:09:31.759Z,8.48
2022-10-23T13:12:02.182Z,6.25
2022-10-23T13:14:34.128Z,8.18
2022-10-23T13:17:04.877Z,7.50
2022-10-23T13:19:34.199Z,7.13
2022-10-23T13:22:06.703Z,8.95
2022-10-23T13:24:42.055Z,8.95
2022-10-23T13:27:26.944Z,8.15
2022-10-23T13:29:55.851Z,8.57
2022-10-23T13:32:26.294Z,8.07
2022-10-23T13:35:04.034Z,7.93
2022-10-23T13:37:40.438Z,8.77
2022-10-23T13:40:23.528Z,5.70
2022-10-23T13:42:52.962Z,8.50
2022-10-23T13:45:24.659Z,7.88
2022-10-23T13:47:53.645Z,6.35
2022-10-23T13:50:22.316Z,7.07
2022-10-23T13:52:52.873Z,6.93
2022-10-23T13:55:25.215Z,7.63
2022-10-23T13:57:53.827Z,6.63
2022-10-23T14:00:22.295Z,7.25
2022-10-23T14:02:51.111Z,7.15
2022-10-23T14:05:20.810Z,6.43
2022-10-23T14:07:49.245Z,7.55
2022-10-23T14:10:21.127Z,6.72
2022-10-23T14:12:53.682Z,7.22
2022-10-23T14:15:23.103Z,6.30
2022-10-23T14:17:58.005Z,7.60
2022-10-23T14:20:28.274Z,6.90
2022-10-23T14:22:57.282Z,7.82
2022-10-23T14:25:27.504Z,5.63
2022-10-23T14:27:56.920Z,6.57
2022-10-23T14:30:28.274Z,5.85
2022-10-23T14:32:57.036Z,5.65
2022-10-23T14:35:26.061Z,6.43
2022-10-23T14:37:54.800Z,6.90
2022-10-23T14:40:23.554Z,7.38
2022-10-23T14:42:53.850Z,7.82
2022-10-23T14:45:22.612Z,7.07
2022-10-23T14:47:51.043Z,7.25
2022-10-23T14:50:19.997Z,5.85
2022-10-23T14:52:48.895Z,5.43
2022-10-23T14:55:17.350Z,8.25
2022-10-23T14:57:46.336Z,6.47
2022-10-23T15:00:17.431Z,5.72
2022-10-23T15:02:47.462Z,6.82
2022-10-23T15:05:29.692Z,6.65
2022-10-23T15:07:59.094Z,6.93
2022-10-23T15:10:27.827Z,5.63
2022-10-23T15:13:00.922Z,5.88
2022-10-23T15:15:31.409Z,6.15
2022-10-23T15:18:00.267Z,5.13
2022-10-23T15:20:29.246Z,5.28
2022-10-23T15:23:04.823Z,6.55
2022-10-23T15:25:33.294Z,5.47
2022-10-23T15:28:02.188Z,5.95
2022-10-23T15:30:32.285Z,6.10
2022-10-23T15:33:02.282Z,5.45
2022-10-23T15:35:32.181Z,5.47
2022-10-23T15:38:01.113Z,5.43
2022-10-23T15:40:32.738Z,5.82
2022-10-23T15:43:01.407Z,6.60
2022-10-23T15:45:31.571Z,6.68
2022-10-23T15:48:00.423Z,6.53
2022-10-23T15:50:29.248Z,7.82
2022-10-23T15:53:00.743Z,6.72
2022-10-23T15:55:30.303Z,7.22
2022-10-23T15:58:01.999Z,8.90
2022-10-23T16:00:36.750Z,5.88
2022-10-23T16:03:05.956Z,6.63
2022-10-23T16:05:34.824Z,5.95
2022-10-23T16:08:03.769Z,7.75
2022-10-23T16:10:32.461Z,6.38
2022-10-23T16:13:01.550Z,7.22
2022-10-23T16:15:30.300Z,5.90
2022-10-23T16:18:00.535Z,5.95
2022-10-23T16:20:30.995Z,5.63
2022-10-23T16:23:00.331Z,7.65
2022-10-23T16:25:29.357Z,5.25
2022-10-23T16:27:59.958Z,7.95
2022-10-23T16:30:28.847Z,6.03
2022-10-23T16:33:00.321Z,7.07
2022-10-23T16:35:31.147Z,6.45
2022-10-23T16:37:59.917Z,5.45
2022-10-23T16:40:28.919Z,5.78
2022-10-23T16:42:58.957Z,6.25
2022-10-23T16:45:27.519Z,5.75
2022-10-23T16:47:57.457Z,6.20
2022-10-23T16:50:27.871Z,6.05
2022-10-23T16:52:56.699Z,6.50
2022-10-23T16:55:25.154Z,6.57
2022-10-23T16:57:53.854Z,5.63
2022-10-23T17:00:23.190Z,5.03
2022-10-23T17:02:53.275Z,5.70
2022-10-23T17:05:22.345Z,5.57
2022-10-23T17:07:52.827Z,5.82
2022-10-23T17:10:21.584Z,5.20
2022-10-23T17:12:50.782Z,6.40
2022-10-23T17:15:20.954Z,5.35
2022-10-23T17:17:49.249Z,5.20
2022-10-23T17:20:18.690Z,5.15
2022-10-23T17:22:47.415Z,5.15
2022-10-23T17:25:17.768Z,5.18
2022-10-23T17:27:47.410Z,5.80
2022-10-23T17:30:17.598Z,5.57
2022-10-23T17:32:46.563Z,5.68
2022-10-23T17:35:15.502Z,5.57
2022-10-23T17:37:44.263Z,5.13
2022-10-23T17:40:13.955Z,5.38
2022-10-23T17:42:47.028Z,4.90
2022-10-23T17:45:17.135Z,6.18
2022-10-23T17:47:46.025Z,5.88
2022-10-23T17:50:15.056Z,6.93
2022-10-23T17:52:44.094Z,5.25
2022-10-23T17:55:13.092Z,5.03
2022-10-23T17:57:44.014Z,5.82
2022-10-23T18:00:13.973Z,5.28
2022-10-23T18:02:42.809Z,5.93
2022-10-23T18:05:12.811Z,6.35
2022-10-23T18:07:42.268Z,7.55
2022-10-23T18:10:12.254Z,6.35
2022-10-23T18:12:40.930Z,6.35
2022-10-23T18:15:12.155Z,5.53
2022-10-23T18:17:41.130Z,8.57
2022-10-23T18:20:11.890Z,4.65
2022-10-23T18:22:44.055Z,5.55
2022-10-23T18:25:13.349Z,5.63
2022-10-23T18:27:42.981Z,4.30
2022-10-23T18:30:14.461Z,5.05
2022-10-23T18:32:43.539Z,5.95
2022-10-23T18:35:14.994Z,4.53
2022-10-23T18:37:44.491Z,5.32
2022-10-23T18:40:14.420Z,5.65
2022-10-23T18:42:43.798Z,5.45
2022-10-23T18:45:14.435Z,5.57
2022-10-23T18:47:43.489Z,4.70
2022-10-23T18:50:12.804Z,6.93
2022-10-23T18:52:41.612Z,4.80
2022-10-23T18:55:11.198Z,4.65
2022-10-23T18:57:40.469Z,5.20
2022-10-23T19:00:10.952Z,4.65
2022-10-23T19:02:41.876Z,5.13
2022-10-23T19:05:11.307Z,5.72
2022-10-23T19:07:45.446Z,4.65
2022-10-23T19:10:17.952Z,6.47
2022-10-23T19:12:46.970Z,5.30
2022-10-23T19:15:16.039Z,4.97
2022-10-23T19:17:46.300Z,5.13
2022-10-23T19:20:20.518Z,5.15
2022-10-23T19:22:51.963Z,4.45
2022-10-23T19:25:25.962Z,4.97
2022-10-23T19:27:56.625Z,4.70
2022-10-23T19:30:26.885Z,4.70
2022-10-23T19:32:57.956Z,7.50
2022-10-23T19:35:27.376Z,7.03
2022-10-23T19:37:56.274Z,6.13
2022-10-23T19:40:26.350Z,7.97
2022-10-23T19:42:55.327Z,6.68
2022-10-23T19:45:23.731Z,9.43
2022-10-23T19:47:52.336Z,5.60
2022-10-23T19:50:22.713Z,6.43
2022-10-23T19:52:51.457Z,5.40
2022-10-23T19:55:20.643Z,5.78
2022-10-23T19:57:49.455Z,7.10
2022-10-23T20:00:19.991Z,6.38
2022-10-23T20:02:51.350Z,4.65
2022-10-23T20:05:24.216Z,5.78
2022-10-23T20:07:53.259Z,5.07
2022-10-23T20:10:22.089Z,5.60
2022-10-23T20:12:56.825Z,6.35
2022-10-23T20:15:31.279Z,4.43
2022-10-23T20:18:00.376Z,5.57
2022-10-23T20:20:30.584Z,5.07
2022-10-23T20:22:59.270Z,5.25
2022-10-23T20:25:28.627Z,5.30
2022-10-23T20:27:57.357Z,5.10
2022-10-23T20:30:26.651Z,5.45
2022-10-23T20:32:55.480Z,6.80
2022-10-23T20:35:25.090Z,5.00
2022-10-23T20:37:54.895Z,5.43
2022-10-23T20:40:23.264Z,5.00
2022-10-23T20:42:51.752Z,6.72
2022-10-23T20:45:20.442Z,3.97
2022-10-23T20:47:48.919Z,6.13
2022-10-23T20:50:19.280Z,4.85
2022-10-23T20:52:47.780Z,4.68
2022-10-23T20:55:17.739Z,4.80
2022-10-23T20:57:46.510Z,5.50
2022-10-23T21:00:15.776Z,5.82
2022-10-23T21:02:47.143Z,6.20
2022-10-23T21:05:18.247Z,4.53
2022-10-23T21:07:46.874Z,5.05
2022-10-23T21:10:15.381Z,5.00
2022-10-23T21:12:45.184Z,4.22
2022-10-23T21:15:13.895Z,5.82
2022-10-23T21:17:42.167Z,5.78
2022-10-23T21:20:11.623Z,6.00
2022-10-23T21:22:40.018Z,5.20
2022-10-23T21:25:09.896Z,4.93
2022-10-23T21:27:38.295Z,4.63
2022-10-23T21:30:10.467Z,5.07
2022-10-23T21:32:41.954Z,6.15
2022-10-23T21:35:11.717Z,4.13
2022-10-23T21:37:39.873Z,5.05
2022-10-23T21:40:09.626Z,5.13
2022-10-23T21:42:38.015Z,6.43
2022-10-23T21:45:10.231Z,5.35
2022-10-23T21:47:38.869Z,5.25
2022-10-23T21:50:07.943Z,4.40
2022-10-23T21:52:36.070Z,4.28
2022-10-23T21:55:07.754Z,4.22
2022-10-23T21:57:36.306Z,5.70
2022-10-23T22:00:08.276Z,4.75
2022-10-23T22:02:36.984Z,6.97
2022-10-23T22:05:05.793Z,4.25
2022-10-23T22:07:34.312Z,5.70
2022-10-23T22:10:03.131Z,6.35
2022-10-23T22:12:31.487Z,3.90
2022-10-23T22:14:59.981Z,5.03
2022-10-23T22:17:29.989Z,4.93
2022-10-23T22:19:58.269Z,4.60
2022-10-23T22:22:26.489Z,5.30
2022-10-23T22:24:55.009Z,5.40
2022-10-23T22:27:23.173Z,5.57
2022-10-23T22:29:51.654Z,4.50
2022-10-23T22:34:54.693Z,5.75
2022-10-23T22:37:23.511Z,5.03
2022-10-23T22:39:52.913Z,3.90
2022-10-23T22:42:21.447Z,4.63
2022-10-23T22:44:49.533Z,5.72
2022-10-23T22:47:17.710Z,5.05
2022-10-23T22:49:46.168Z,5.05
2022-10-23T22:52:16.087Z,3.80
2022-10-23T22:54:44.568Z,4.90
2022-10-23T22:57:12.778Z,4.65
2022-10-23T22:59:41.402Z,5.25
2022-10-23T23:02:10.156Z,4.88
2022-10-23T23:04:39.215Z,5.00
2022-10-23T23:07:08.680Z,5.28
2022-10-23T23:09:39.926Z,4.13
2022-10-23T23:12:10.225Z,3.95
2022-10-23T23:14:38.922Z,5.38
2022-10-23T23:17:08.606Z,6.88
2022-10-23T23:19:37.756Z,4.00
2022-10-23T23:22:06.468Z,5.28
2022-10-23T23:24:35.215Z,4.50
2022-10-23T23:27:04.782Z,4.78
2022-10-23T23:29:33.025Z,4.90
2022-10-23T23:32:01.923Z,4.25
2022-10-23T23:34:30.063Z,4.60
2022-10-23T23:36:58.211Z,4.15
2022-10-23T23:39:28.530Z,4.25
2022-10-23T23:41:57.317Z,3.80
2022-10-23T23:44:27.211Z,6.28
2022-10-23T23:46:55.888Z,5.47
2022-10-23T23:49:24.650Z,6.00
2022-10-23T23:51:53.323Z,4.72
2022-10-23T23:54:21.858Z,3.85
2022-10-23T23:56:50.411Z,4.22
2022-10-23T23:59:18.988Z,7.45
